sensor_id;sensor_type;location;lat;lon;timestamp;P1;durP1;ratioP1;P2;durP2;ratioP2
21128;SDS011;10722;51.910;8.352;2023-12-20T00:00:02;36.87;;;18.23;;
21128;SDS011;10722;51.910;8.352;2023-12-20T00:02:48;40.33;;;19.37;;
21128;SDS011;10722;51.910;8.352;2023-12-20T00:05:33;39.83;;;18.70;;
21128;SDS011;10722;51.910;8.352;2023-12-20T00:08:18;37.20;;;17.53;;
21128;SDS011;10722;51.910;8.352;2023-12-20T00:11:03;34.57;;;16.87;;
21128;SDS011;10722;51.910;8.352;2023-12-20T00:13:48;32.53;;;16.77;;
21128;SDS011;10722;51.910;8.352;2023-12-20T00:16:35;34.07;;;16.90;;
21128;SDS011;10722;51.910;8.352;2023-12-20T00:19:20;29.40;;;14.10;;
21128;SDS011;10722;51.910;8.352;2023-12-20T00:22:06;33.10;;;15.80;;
21128;SDS011;10722;51.910;8.352;2023-12-20T00:24:51;29.07;;;14.57;;
21128;SDS011;10722;51.910;8.352;2023-12-20T00:27:36;34.97;;;15.03;;
21128;SDS011;10722;51.910;8.352;2023-12-20T00:30:21;32.10;;;14.37;;
21128;SDS011;10722;51.910;8.352;2023-12-20T00:33:06;31.73;;;14.27;;
21128;SDS011;10722;51.910;8.352;2023-12-20T00:35:52;29.90;;;13.80;;
21128;SDS011;10722;51.910;8.352;2023-12-20T00:38:37;31.43;;;13.87;;
21128;SDS011;10722;51.910;8.352;2023-12-20T00:41:22;30.47;;;12.40;;
21128;SDS011;10722;51.910;8.352;2023-12-20T00:44:07;27.83;;;11.13;;
21128;SDS011;10722;51.910;8.352;2023-12-20T00:46:53;24.50;;;10.60;;
21128;SDS011;10722;51.910;8.352;2023-12-20T00:49:38;25.23;;;10.03;;
21128;SDS011;10722;51.910;8.352;2023-12-20T00:52:25;25.73;;;10.20;;
21128;SDS011;10722;51.910;8.352;2023-12-20T00:55:10;25.30;;;9.70;;
21128;SDS011;10722;51.910;8.352;2023-12-20T00:57:55;23.50;;;9.00;;
21128;SDS011;10722;51.910;8.352;2023-12-20T01:00:40;21.30;;;7.80;;
21128;SDS011;10722;51.910;8.352;2023-12-20T01:03:28;19.20;;;7.10;;
21128;SDS011;10722;51.910;8.352;2023-12-20T01:06:14;20.30;;;6.90;;
21128;SDS011;10722;51.910;8.352;2023-12-20T01:09:00;21.27;;;6.83;;
21128;SDS011;10722;51.910;8.352;2023-12-20T01:11:45;19.40;;;6.13;;
21128;SDS011;10722;51.910;8.352;2023-12-20T01:14:30;19.83;;;5.50;;
21128;SDS011;10722;51.910;8.352;2023-12-20T01:17:15;18.17;;;5.43;;
21128;SDS011;10722;51.910;8.352;2023-12-20T01:20:00;17.70;;;5.37;;
21128;SDS011;10722;51.910;8.352;2023-12-20T01:22:45;20.13;;;5.23;;
21128;SDS011;10722;51.910;8.352;2023-12-20T01:25:30;18.23;;;5.00;;
21128;SDS011;10722;51.910;8.352;2023-12-20T01:28:15;21.67;;;5.27;;
21128;SDS011;10722;51.910;8.352;2023-12-20T01:31:00;16.47;;;5.20;;
21128;SDS011;10722;51.910;8.352;2023-12-20T01:33:45;17.87;;;5.30;;
21128;SDS011;10722;51.910;8.352;2023-12-20T01:36:31;18.23;;;5.60;;
21128;SDS011;10722;51.910;8.352;2023-12-20T01:39:16;19.63;;;5.53;;
21128;SDS011;10722;51.910;8.352;2023-12-20T01:42:11;18.30;;;5.53;;
21128;SDS011;10722;51.910;8.352;2023-12-20T01:44:56;19.53;;;5.17;;
21128;SDS011;10722;51.910;8.352;2023-12-20T01:47:42;17.57;;;5.30;;
21128;SDS011;10722;51.910;8.352;2023-12-20T01:50:27;19.13;;;5.40;;
21128;SDS011;10722;51.910;8.352;2023-12-20T01:53:13;18.83;;;5.20;;
21128;SDS011;10722;51.910;8.352;2023-12-20T01:55:59;20.40;;;5.87;;
21128;SDS011;10722;51.910;8.352;2023-12-20T01:58:45;22.80;;;6.00;;
21128;SDS011;10722;51.910;8.352;2023-12-20T02:01:31;20.17;;;5.70;;
21128;SDS011;10722;51.910;8.352;2023-12-20T02:04:17;19.43;;;5.43;;
21128;SDS011;10722;51.910;8.352;2023-12-20T02:07:03;17.90;;;5.33;;
21128;SDS011;10722;51.910;8.352;2023-12-20T02:09:48;22.83;;;6.23;;
21128;SDS011;10722;51.910;8.352;2023-12-20T02:12:33;18.67;;;5.70;;
21128;SDS011;10722;51.910;8.352;2023-12-20T02:15:18;18.70;;;5.80;;
21128;SDS011;10722;51.910;8.352;2023-12-20T02:18:04;18.17;;;5.70;;
21128;SDS011;10722;51.910;8.352;2023-12-20T02:20:49;18.90;;;6.20;;
21128;SDS011;10722;51.910;8.352;2023-12-20T02:23:34;21.53;;;5.63;;
21128;SDS011;10722;51.910;8.352;2023-12-20T02:26:19;18.03;;;5.97;;
21128;SDS011;10722;51.910;8.352;2023-12-20T02:29:04;22.10;;;6.37;;
21128;SDS011;10722;51.910;8.352;2023-12-20T02:31:49;23.17;;;7.10;;
21128;SDS011;10722;51.910;8.352;2023-12-20T02:34:34;25.00;;;6.50;;
21128;SDS011;10722;51.910;8.352;2023-12-20T02:37:20;22.67;;;6.87;;
21128;SDS011;10722;51.910;8.352;2023-12-20T02:40:05;27.40;;;7.47;;
21128;SDS011;10722;51.910;8.352;2023-12-20T02:42:50;22.37;;;7.57;;
21128;SDS011;10722;51.910;8.352;2023-12-20T02:45:35;26.07;;;8.53;;
21128;SDS011;10722;51.910;8.352;2023-12-20T02:48:20;23.70;;;8.70;;
21128;SDS011;10722;51.910;8.352;2023-12-20T02:51:06;29.10;;;8.93;;
21128;SDS011;10722;51.910;8.352;2023-12-20T02:53:51;28.87;;;9.67;;
21128;SDS011;10722;51.910;8.352;2023-12-20T02:56:36;25.63;;;10.00;;
21128;SDS011;10722;51.910;8.352;2023-12-20T02:59:21;26.70;;;9.73;;
21128;SDS011;10722;51.910;8.352;2023-12-20T03:02:05;27.20;;;10.27;;
21128;SDS011;10722;51.910;8.352;2023-12-20T03:04:51;26.70;;;10.53;;
21128;SDS011;10722;51.910;8.352;2023-12-20T03:07:36;29.90;;;10.57;;
21128;SDS011;10722;51.910;8.352;2023-12-20T03:10:21;28.77;;;11.10;;
21128;SDS011;10722;51.910;8.352;2023-12-20T03:13:11;30.77;;;11.90;;
21128;SDS011;10722;51.910;8.352;2023-12-20T03:15:56;30.73;;;11.97;;
21128;SDS011;10722;51.910;8.352;2023-12-20T03:18:41;31.17;;;11.37;;
21128;SDS011;10722;51.910;8.352;2023-12-20T03:21:26;27.77;;;11.77;;
21128;SDS011;10722;51.910;8.352;2023-12-20T03:24:11;28.67;;;12.20;;
21128;SDS011;10722;51.910;8.352;2023-12-20T03:26:56;29.60;;;11.80;;
21128;SDS011;10722;51.910;8.352;2023-12-20T03:29:41;31.10;;;12.27;;
21128;SDS011;10722;51.910;8.352;2023-12-20T03:32:26;27.57;;;11.40;;
21128;SDS011;10722;51.910;8.352;2023-12-20T03:35:11;32.47;;;11.00;;
21128;SDS011;10722;51.910;8.352;2023-12-20T03:37:56;29.87;;;10.60;;
21128;SDS011;10722;51.910;8.352;2023-12-20T03:40:41;30.37;;;9.87;;
21128;SDS011;10722;51.910;8.352;2023-12-20T03:43:25;36.77;;;10.27;;
21128;SDS011;10722;51.910;8.352;2023-12-20T03:46:10;35.13;;;10.57;;
21128;SDS011;10722;51.910;8.352;2023-12-20T03:48:55;24.37;;;8.40;;
21128;SDS011;10722;51.910;8.352;2023-12-20T03:51:40;33.43;;;9.53;;
21128;SDS011;10722;51.910;8.352;2023-12-20T03:54:25;26.43;;;9.60;;
21128;SDS011;10722;51.910;8.352;2023-12-20T03:57:10;31.07;;;10.30;;
21128;SDS011;10722;51.910;8.352;2023-12-20T03:59:55;28.70;;;9.47;;
21128;SDS011;10722;51.910;8.352;2023-12-20T04:02:40;28.57;;;9.77;;
21128;SDS011;10722;51.910;8.352;2023-12-20T04:05:26;24.53;;;9.90;;
21128;SDS011;10722;51.910;8.352;2023-12-20T04:08:11;27.40;;;8.70;;
21128;SDS011;10722;51.910;8.352;2023-12-20T04:10:56;25.90;;;8.53;;
21128;SDS011;10722;51.910;8.352;2023-12-20T04:13:41;28.83;;;8.37;;
21128;SDS011;10722;51.910;8.352;2023-12-20T04:16:27;30.57;;;8.10;;
21128;SDS011;10722;51.910;8.352;2023-12-20T04:19:12;31.83;;;8.00;;
21128;SDS011;10722;51.910;8.352;2023-12-20T04:21:57;27.00;;;8.07;;
21128;SDS011;10722;51.910;8.352;2023-12-20T04:24:42;26.10;;;8.10;;
21128;SDS011;10722;51.910;8.352;2023-12-20T04:27:27;24.63;;;7.50;;
21128;SDS011;10722;51.910;8.352;2023-12-20T04:30:13;28.07;;;8.30;;
21128;SDS011;10722;51.910;8.352;2023-12-20T04:32:58;30.10;;;7.90;;
21128;SDS011;10722;51.910;8.352;2023-12-20T04:35:43;27.83;;;7.33;;
21128;SDS011;10722;51.910;8.352;2023-12-20T04:38:28;28.90;;;8.43;;
21128;SDS011;10722;51.910;8.352;2023-12-20T04:41:13;33.80;;;7.47;;
21128;SDS011;10722;51.910;8.352;2023-12-20T04:43:58;28.17;;;8.03;;
21128;SDS011;10722;51.910;8.352;2023-12-20T04:46:43;29.77;;;7.73;;
21128;SDS011;10722;51.910;8.352;2023-12-20T04:49:27;29.27;;;7.20;;
21128;SDS011;10722;51.910;8.352;2023-12-20T04:52:12;26.10;;;7.43;;
21128;SDS011;10722;51.910;8.352;2023-12-20T04:54:57;25.83;;;7.00;;
21128;SDS011;10722;51.910;8.352;2023-12-20T04:57:42;29.83;;;7.30;;
21128;SDS011;10722;51.910;8.352;2023-12-20T05:00:28;28.03;;;7.53;;
21128;SDS011;10722;51.910;8.352;2023-12-20T05:03:12;28.10;;;7.10;;
21128;SDS011;10722;51.910;8.352;2023-12-20T05:05:57;26.23;;;7.67;;
21128;SDS011;10722;51.910;8.352;2023-12-20T05:08:42;29.93;;;7.77;;
21128;SDS011;10722;51.910;8.352;2023-12-20T05:11:27;25.67;;;6.87;;
21128;SDS011;10722;51.910;8.352;2023-12-20T05:14:12;29.10;;;7.43;;
21128;SDS011;10722;51.910;8.352;2023-12-20T05:16:57;26.23;;;7.30;;
21128;SDS011;10722;51.910;8.352;2023-12-20T05:19:42;32.23;;;8.13;;
21128;SDS011;10722;51.910;8.352;2023-12-20T05:22:27;30.00;;;7.63;;
21128;SDS011;10722;51.910;8.352;2023-12-20T05:25:12;30.80;;;8.07;;
21128;SDS011;10722;51.910;8.352;2023-12-20T05:27:57;32.87;;;9.00;;
21128;SDS011;10722;51.910;8.352;2023-12-20T05:30:42;29.13;;;8.90;;
21128;SDS011;10722;51.910;8.352;2023-12-20T05:33:28;30.10;;;8.83;;
21128;SDS011;10722;51.910;8.352;2023-12-20T05:36:13;34.40;;;9.47;;
21128;SDS011;10722;51.910;8.352;2023-12-20T05:38:58;33.30;;;8.73;;
21128;SDS011;10722;51.910;8.352;2023-12-20T05:41:43;33.20;;;9.20;;
21128;SDS011;10722;51.910;8.352;2023-12-20T05:44:28;30.17;;;9.13;;
21128;SDS011;10722;51.910;8.352;2023-12-20T05:47:13;27.83;;;9.63;;
21128;SDS011;10722;51.910;8.352;2023-12-20T05:49:58;29.40;;;8.63;;
21128;SDS011;10722;51.910;8.352;2023-12-20T05:52:43;35.93;;;10.27;;
21128;SDS011;10722;51.910;8.352;2023-12-20T05:55:28;38.50;;;9.53;;
21128;SDS011;10722;51.910;8.352;2023-12-20T05:58:13;36.03;;;10.83;;
21128;SDS011;10722;51.910;8.352;2023-12-20T06:00:58;27.90;;;8.20;;
21128;SDS011;10722;51.910;8.352;2023-12-20T06:03:43;35.33;;;10.63;;
21128;SDS011;10722;51.910;8.352;2023-12-20T06:06:28;32.43;;;10.97;;
21128;SDS011;10722;51.910;8.352;2023-12-20T06:09:13;31.37;;;10.87;;
21128;SDS011;10722;51.910;8.352;2023-12-20T06:11:58;30.40;;;10.90;;
21128;SDS011;10722;51.910;8.352;2023-12-20T06:14:42;29.63;;;10.33;;
21128;SDS011;10722;51.910;8.352;2023-12-20T06:17:27;35.37;;;10.67;;
21128;SDS011;10722;51.910;8.352;2023-12-20T06:20:13;29.30;;;8.63;;
21128;SDS011;10722;51.910;8.352;2023-12-20T06:22:58;35.03;;;10.10;;
21128;SDS011;10722;51.910;8.352;2023-12-20T06:25:43;31.43;;;9.77;;
21128;SDS011;10722;51.910;8.352;2023-12-20T06:28:28;30.67;;;9.53;;
21128;SDS011;10722;51.910;8.352;2023-12-20T06:31:13;33.60;;;10.30;;
21128;SDS011;10722;51.910;8.352;2023-12-20T06:33:59;26.97;;;9.37;;
21128;SDS011;10722;51.910;8.352;2023-12-20T06:36:44;30.60;;;10.07;;
21128;SDS011;10722;51.910;8.352;2023-12-20T06:39:29;31.20;;;8.27;;
21128;SDS011;10722;51.910;8.352;2023-12-20T06:42:14;26.73;;;8.90;;
21128;SDS011;10722;51.910;8.352;2023-12-20T06:44:59;31.47;;;8.97;;
21128;SDS011;10722;51.910;8.352;2023-12-20T06:47:44;30.43;;;9.67;;
21128;SDS011;10722;51.910;8.352;2023-12-20T06:50:29;29.53;;;9.27;;
21128;SDS011;10722;51.910;8.352;2023-12-20T06:53:14;34.57;;;9.23;;
21128;SDS011;10722;51.910;8.352;2023-12-20T06:55:59;32.53;;;9.47;;
21128;SDS011;10722;51.910;8.352;2023-12-20T06:58:44;28.80;;;8.97;;
21128;SDS011;10722;51.910;8.352;2023-12-20T07:01:29;28.23;;;8.40;;
21128;SDS011;10722;51.910;8.352;2023-12-20T07:04:15;29.00;;;9.00;;
21128;SDS011;10722;51.910;8.352;2023-12-20T07:07:00;32.47;;;8.77;;
21128;SDS011;10722;51.910;8.352;2023-12-20T07:09:46;32.33;;;8.93;;
21128;SDS011;10722;51.910;8.352;2023-12-20T07:12:31;28.87;;;7.30;;
21128;SDS011;10722;51.910;8.352;2023-12-20T07:15:16;30.40;;;8.37;;
21128;SDS011;10722;51.910;8.352;2023-12-20T07:18:01;28.20;;;8.13;;
21128;SDS011;10722;51.910;8.352;2023-12-20T07:20:46;33.37;;;10.00;;
21128;SDS011;10722;51.910;8.352;2023-12-20T07:23:31;27.80;;;8.30;;
21128;SDS011;10722;51.910;8.352;2023-12-20T07:26:16;28.50;;;7.83;;
21128;SDS011;10722;51.910;8.352;2023-12-20T07:29:02;30.87;;;8.27;;
21128;SDS011;10722;51.910;8.352;2023-12-20T07:31:47;32.67;;;8.47;;
21128;SDS011;10722;51.910;8.352;2023-12-20T07:34:33;31.80;;;8.13;;
21128;SDS011;10722;51.910;8.352;2023-12-20T07:37:21;26.43;;;6.27;;
21128;SDS011;10722;51.910;8.352;2023-12-20T07:40:06;29.33;;;7.03;;
21128;SDS011;10722;51.910;8.352;2023-12-20T07:42:52;30.60;;;7.30;;
21128;SDS011;10722;51.910;8.352;2023-12-20T07:45:37;28.87;;;7.13;;
21128;SDS011;10722;51.910;8.352;2023-12-20T07:48:22;29.40;;;6.37;;
21128;SDS011;10722;51.910;8.352;2023-12-20T07:51:06;24.80;;;6.80;;
21128;SDS011;10722;51.910;8.352;2023-12-20T07:53:51;28.93;;;6.83;;
21128;SDS011;10722;51.910;8.352;2023-12-20T07:56:36;28.03;;;5.73;;
21128;SDS011;10722;51.910;8.352;2023-12-20T07:59:21;24.43;;;6.57;;
21128;SDS011;10722;51.910;8.352;2023-12-20T08:02:16;29.03;;;6.83;;
21128;SDS011;10722;51.910;8.352;2023-12-20T08:05:01;18.53;;;4.60;;
21128;SDS011;10722;51.910;8.352;2023-12-20T08:07:46;32.93;;;8.00;;
21128;SDS011;10722;51.910;8.352;2023-12-20T08:10:32;33.03;;;7.37;;
21128;SDS011;10722;51.910;8.352;2023-12-20T08:13:17;25.53;;;7.00;;
21128;SDS011;10722;51.910;8.352;2023-12-20T08:16:02;28.83;;;7.30;;
21128;SDS011;10722;51.910;8.352;2023-12-20T08:18:51;31.87;;;6.67;;
21128;SDS011;10722;51.910;8.352;2023-12-20T08:21:36;33.67;;;8.20;;
21128;SDS011;10722;51.910;8.352;2023-12-20T08:24:23;27.77;;;6.97;;
21128;SDS011;10722;51.910;8.352;2023-12-20T08:27:08;25.00;;;7.53;;
21128;SDS011;10722;51.910;8.352;2023-12-20T08:29:53;30.33;;;7.33;;
21128;SDS011;10722;51.910;8.352;2023-12-20T08:32:37;29.40;;;7.37;;
21128;SDS011;10722;51.910;8.352;2023-12-20T08:35:22;30.07;;;7.87;;
21128;SDS011;10722;51.910;8.352;2023-12-20T08:38:07;27.87;;;7.40;;
21128;SDS011;10722;51.910;8.352;2023-12-20T08:40:52;27.67;;;8.13;;
21128;SDS011;10722;51.910;8.352;2023-12-20T08:43:37;32.80;;;8.40;;
21128;SDS011;10722;51.910;8.352;2023-12-20T08:46:22;29.20;;;8.30;;
21128;SDS011;10722;51.910;8.352;2023-12-20T08:49:08;30.90;;;8.10;;
21128;SDS011;10722;51.910;8.352;2023-12-20T08:51:53;33.67;;;9.23;;
21128;SDS011;10722;51.910;8.352;2023-12-20T08:54:38;27.93;;;8.60;;
21128;SDS011;10722;51.910;8.352;2023-12-20T08:57:23;27.03;;;7.40;;
21128;SDS011;10722;51.910;8.352;2023-12-20T09:00:08;31.20;;;8.30;;
21128;SDS011;10722;51.910;8.352;2023-12-20T09:02:54;34.87;;;9.43;;
21128;SDS011;10722;51.910;8.352;2023-12-20T09:05:39;34.07;;;9.47;;
21128;SDS011;10722;51.910;8.352;2023-12-20T09:08:24;33.20;;;10.27;;
21128;SDS011;10722;51.910;8.352;2023-12-20T09:11:09;29.17;;;9.67;;
21128;SDS011;10722;51.910;8.352;2023-12-20T09:13:54;37.13;;;11.77;;
21128;SDS011;10722;51.910;8.352;2023-12-20T09:16:39;30.00;;;10.80;;
21128;SDS011;10722;51.910;8.352;2023-12-20T09:19:25;27.83;;;10.20;;
21128;SDS011;10722;51.910;8.352;2023-12-20T09:22:10;30.53;;;11.67;;
21128;SDS011;10722;51.910;8.352;2023-12-20T09:24:56;30.80;;;11.20;;
21128;SDS011;10722;51.910;8.352;2023-12-20T09:27:41;29.80;;;11.10;;
21128;SDS011;10722;51.910;8.352;2023-12-20T09:30:26;33.13;;;10.97;;
21128;SDS011;10722;51.910;8.352;2023-12-20T09:33:12;37.47;;;10.93;;
21128;SDS011;10722;51.910;8.352;2023-12-20T09:35:57;29.67;;;10.53;;
21128;SDS011;10722;51.910;8.352;2023-12-20T09:38:42;36.43;;;11.83;;
21128;SDS011;10722;51.910;8.352;2023-12-20T09:41:31;35.03;;;11.73;;
21128;SDS011;10722;51.910;8.352;2023-12-20T09:44:22;35.23;;;10.67;;
21128;SDS011;10722;51.910;8.352;2023-12-20T09:47:07;39.97;;;10.57;;
21128;SDS011;10722;51.910;8.352;2023-12-20T09:49:52;31.80;;;10.57;;
21128;SDS011;10722;51.910;8.352;2023-12-20T09:52:39;31.87;;;9.90;;
21128;SDS011;10722;51.910;8.352;2023-12-20T09:55:24;23.70;;;6.70;;
21128;SDS011;10722;51.910;8.352;2023-12-20T09:58:10;27.83;;;10.17;;
21128;SDS011;10722;51.910;8.352;2023-12-20T10:00:55;36.93;;;10.67;;
21128;SDS011;10722;51.910;8.352;2023-12-20T10:03:40;33.37;;;10.07;;
21128;SDS011;10722;51.910;8.352;2023-12-20T10:06:25;28.63;;;9.77;;
21128;SDS011;10722;51.910;8.352;2023-12-20T10:09:11;34.50;;;10.20;;
21128;SDS011;10722;51.910;8.352;2023-12-20T10:11:57;32.07;;;9.50;;
21128;SDS011;10722;51.910;8.352;2023-12-20T10:14:42;28.53;;;9.13;;
21128;SDS011;10722;51.910;8.352;2023-12-20T10:17:27;28.83;;;8.77;;
21128;SDS011;10722;51.910;8.352;2023-12-20T10:20:12;31.40;;;9.00;;
21128;SDS011;10722;51.910;8.352;2023-12-20T10:22:58;40.93;;;9.43;;
21128;SDS011;10722;51.910;8.352;2023-12-20T10:25:55;29.93;;;8.70;;
21128;SDS011;10722;51.910;8.352;2023-12-20T10:28:40;31.97;;;9.43;;
21128;SDS011;10722;51.910;8.352;2023-12-20T10:31:26;27.73;;;9.07;;
21128;SDS011;10722;51.910;8.352;2023-12-20T10:34:12;34.30;;;8.60;;
21128;SDS011;10722;51.910;8.352;2023-12-20T10:36:57;31.77;;;8.47;;
21128;SDS011;10722;51.910;8.352;2023-12-20T10:39:44;31.13;;;8.43;;
21128;SDS011;10722;51.910;8.352;2023-12-20T10:42:34;38.23;;;12.80;;
21128;SDS011;10722;51.910;8.352;2023-12-20T10:45:20;26.07;;;8.17;;
21128;SDS011;10722;51.910;8.352;2023-12-20T10:48:05;32.03;;;8.10;;
21128;SDS011;10722;51.910;8.352;2023-12-20T10:50:52;32.27;;;8.77;;
21128;SDS011;10722;51.910;8.352;2023-12-20T10:53:39;27.13;;;8.03;;
21128;SDS011;10722;51.910;8.352;2023-12-20T10:56:25;33.97;;;8.17;;
21128;SDS011;10722;51.910;8.352;2023-12-20T10:59:16;33.53;;;8.00;;
21128;SDS011;10722;51.910;8.352;2023-12-20T11:02:04;29.97;;;8.50;;
21128;SDS011;10722;51.910;8.352;2023-12-20T11:04:52;28.70;;;7.90;;
21128;SDS011;10722;51.910;8.352;2023-12-20T11:07:43;30.57;;;7.77;;
21128;SDS011;10722;51.910;8.352;2023-12-20T11:10:46;28.13;;;7.47;;
21128;SDS011;10722;51.910;8.352;2023-12-20T11:13:34;27.23;;;7.10;;
21128;SDS011;10722;51.910;8.352;2023-12-20T11:16:25;28.23;;;7.87;;
21128;SDS011;10722;51.910;8.352;2023-12-20T11:19:18;25.93;;;7.03;;
21128;SDS011;10722;51.910;8.352;2023-12-20T11:22:04;27.40;;;7.10;;
21128;SDS011;10722;51.910;8.352;2023-12-20T11:24:50;28.63;;;8.10;;
21128;SDS011;10722;51.910;8.352;2023-12-20T11:27:41;25.90;;;7.10;;
21128;SDS011;10722;51.910;8.352;2023-12-20T11:30:27;25.47;;;7.17;;
21128;SDS011;10722;51.910;8.352;2023-12-20T11:36:21;25.13;;;7.30;;
21128;SDS011;10722;51.910;8.352;2023-12-20T11:39:10;21.27;;;6.37;;
21128;SDS011;10722;51.910;8.352;2023-12-20T11:41:57;26.00;;;6.60;;
21128;SDS011;10722;51.910;8.352;2023-12-20T11:44:49;23.77;;;6.80;;
21128;SDS011;10722;51.910;8.352;2023-12-20T11:47:35;25.03;;;6.70;;
21128;SDS011;10722;51.910;8.352;2023-12-20T11:50:21;22.23;;;5.43;;
21128;SDS011;10722;51.910;8.352;2023-12-20T11:53:07;19.67;;;4.80;;
21128;SDS011;10722;51.910;8.352;2023-12-20T11:55:53;16.63;;;4.47;;
21128;SDS011;10722;51.910;8.352;2023-12-20T11:58:39;17.70;;;4.60;;
21128;SDS011;10722;51.910;8.352;2023-12-20T12:01:24;19.23;;;5.10;;
21128;SDS011;10722;51.910;8.352;2023-12-20T12:04:10;23.40;;;5.50;;
21128;SDS011;10722;51.910;8.352;2023-12-20T12:06:55;20.33;;;5.60;;
21128;SDS011;10722;51.910;8.352;2023-12-20T12:09:40;24.63;;;5.53;;
21128;SDS011;10722;51.910;8.352;2023-12-20T12:12:25;20.90;;;5.90;;
21128;SDS011;10722;51.910;8.352;2023-12-20T12:15:11;22.03;;;5.27;;
21128;SDS011;10722;51.910;8.352;2023-12-20T12:17:56;21.17;;;5.63;;
21128;SDS011;10722;51.910;8.352;2023-12-20T12:20:41;22.33;;;5.40;;
21128;SDS011;10722;51.910;8.352;2023-12-20T12:23:27;22.13;;;5.67;;
21128;SDS011;10722;51.910;8.352;2023-12-20T12:26:12;21.07;;;5.10;;
21128;SDS011;10722;51.910;8.352;2023-12-20T12:28:57;22.77;;;5.40;;
21128;SDS011;10722;51.910;8.352;2023-12-20T12:31:42;22.97;;;5.57;;
21128;SDS011;10722;51.910;8.352;2023-12-20T12:34:27;23.70;;;5.57;;
21128;SDS011;10722;51.910;8.352;2023-12-20T12:37:13;24.97;;;5.40;;
21128;SDS011;10722;51.910;8.352;2023-12-20T12:39:58;23.17;;;5.33;;
21128;SDS011;10722;51.910;8.352;2023-12-20T12:42:44;25.00;;;5.73;;
21128;SDS011;10722;51.910;8.352;2023-12-20T12:45:30;23.57;;;5.13;;
21128;SDS011;10722;51.910;8.352;2023-12-20T12:48:15;26.10;;;5.37;;
21128;SDS011;10722;51.910;8.352;2023-12-20T12:51:00;23.87;;;5.30;;
21128;SDS011;10722;51.910;8.352;2023-12-20T12:53:45;22.57;;;4.97;;
21128;SDS011;10722;51.910;8.352;2023-12-20T12:56:30;23.37;;;4.80;;
21128;SDS011;10722;51.910;8.352;2023-12-20T12:59:15;23.47;;;4.70;;
21128;SDS011;10722;51.910;8.352;2023-12-20T13:02:00;24.37;;;5.30;;
21128;SDS011;10722;51.910;8.352;2023-12-20T13:04:45;25.47;;;5.40;;
21128;SDS011;10722;51.910;8.352;2023-12-20T13:07:30;24.37;;;4.93;;
21128;SDS011;10722;51.910;8.352;2023-12-20T13:10:16;27.30;;;5.30;;
21128;SDS011;10722;51.910;8.352;2023-12-20T13:13:01;21.47;;;4.90;;
21128;SDS011;10722;51.910;8.352;2023-12-20T13:15:46;25.67;;;5.40;;
21128;SDS011;10722;51.910;8.352;2023-12-20T13:18:30;21.80;;;4.87;;
21128;SDS011;10722;51.910;8.352;2023-12-20T13:21:16;24.23;;;5.27;;
21128;SDS011;10722;51.910;8.352;2023-12-20T13:24:01;17.80;;;4.40;;
21128;SDS011;10722;51.910;8.352;2023-12-20T13:26:46;24.07;;;5.23;;
21128;SDS011;10722;51.910;8.352;2023-12-20T13:29:32;22.17;;;4.70;;
21128;SDS011;10722;51.910;8.352;2023-12-20T13:32:17;17.53;;;3.20;;
21128;SDS011;10722;51.910;8.352;2023-12-20T13:35:02;11.30;;;2.20;;
21128;SDS011;10722;51.910;8.352;2023-12-20T13:37:47;14.83;;;3.37;;
21128;SDS011;10722;51.910;8.352;2023-12-20T13:40:33;14.73;;;3.00;;
21128;SDS011;10722;51.910;8.352;2023-12-20T13:43:18;10.87;;;2.10;;
21128;SDS011;10722;51.910;8.352;2023-12-20T13:46:03;15.13;;;2.10;;
21128;SDS011;10722;51.910;8.352;2023-12-20T13:48:48;8.00;;;1.40;;
21128;SDS011;10722;51.910;8.352;2023-12-20T13:51:33;8.63;;;1.47;;
21128;SDS011;10722;51.910;8.352;2023-12-20T13:54:18;7.27;;;1.50;;
21128;SDS011;10722;51.910;8.352;2023-12-20T13:57:03;7.20;;;1.30;;
21128;SDS011;10722;51.910;8.352;2023-12-20T14:00:00;10.13;;;1.53;;
21128;SDS011;10722;51.910;8.352;2023-12-20T14:02:46;10.43;;;1.50;;
21128;SDS011;10722;51.910;8.352;2023-12-20T14:05:31;9.47;;;1.60;;
21128;SDS011;10722;51.910;8.352;2023-12-20T14:08:16;10.50;;;1.80;;
21128;SDS011;10722;51.910;8.352;2023-12-20T14:11:01;8.07;;;1.80;;
21128;SDS011;10722;51.910;8.352;2023-12-20T14:13:47;10.83;;;1.70;;
21128;SDS011;10722;51.910;8.352;2023-12-20T14:16:32;8.27;;;1.50;;
21128;SDS011;10722;51.910;8.352;2023-12-20T14:19:17;9.37;;;1.30;;
21128;SDS011;10722;51.910;8.352;2023-12-20T14:22:02;9.20;;;1.60;;
21128;SDS011;10722;51.910;8.352;2023-12-20T14:24:47;10.17;;;1.97;;
21128;SDS011;10722;51.910;8.352;2023-12-20T14:27:32;11.53;;;2.00;;
21128;SDS011;10722;51.910;8.352;2023-12-20T14:30:18;9.63;;;2.20;;
21128;SDS011;10722;51.910;8.352;2023-12-20T14:33:03;14.37;;;2.53;;
21128;SDS011;10722;51.910;8.352;2023-12-20T14:35:49;10.23;;;2.00;;
21128;SDS011;10722;51.910;8.352;2023-12-20T14:38:34;14.13;;;2.30;;
21128;SDS011;10722;51.910;8.352;2023-12-20T14:41:19;9.67;;;1.90;;
21128;SDS011;10722;51.910;8.352;2023-12-20T14:44:04;12.30;;;2.67;;
21128;SDS011;10722;51.910;8.352;2023-12-20T14:46:50;12.77;;;2.60;;
21128;SDS011;10722;51.910;8.352;2023-12-20T14:49:35;9.33;;;2.20;;
21128;SDS011;10722;51.910;8.352;2023-12-20T14:52:21;14.80;;;2.60;;
21128;SDS011;10722;51.910;8.352;2023-12-20T14:55:06;12.43;;;2.40;;
21128;SDS011;10722;51.910;8.352;2023-12-20T14:57:51;15.00;;;4.53;;
21128;SDS011;10722;51.910;8.352;2023-12-20T15:00:37;14.57;;;3.53;;
21128;SDS011;10722;51.910;8.352;2023-12-20T15:03:22;12.37;;;2.80;;
21128;SDS011;10722;51.910;8.352;2023-12-20T15:06:07;17.60;;;3.57;;
21128;SDS011;10722;51.910;8.352;2023-12-20T15:08:52;11.23;;;2.87;;
21128;SDS011;10722;51.910;8.352;2023-12-20T15:11:37;15.90;;;4.80;;
21128;SDS011;10722;51.910;8.352;2023-12-20T15:14:22;19.77;;;4.37;;
21128;SDS011;10722;51.910;8.352;2023-12-20T15:17:08;20.50;;;3.43;;
21128;SDS011;10722;51.910;8.352;2023-12-20T15:19:53;12.23;;;2.80;;
21128;SDS011;10722;51.910;8.352;2023-12-20T15:22:38;14.33;;;3.23;;
21128;SDS011;10722;51.910;8.352;2023-12-20T15:25:23;13.50;;;2.83;;
21128;SDS011;10722;51.910;8.352;2023-12-20T15:28:09;11.47;;;3.17;;
21128;SDS011;10722;51.910;8.352;2023-12-20T15:30:54;16.27;;;3.50;;
21128;SDS011;10722;51.910;8.352;2023-12-20T15:33:40;19.20;;;4.33;;
21128;SDS011;10722;51.910;8.352;2023-12-20T15:36:25;22.87;;;6.80;;
21128;SDS011;10722;51.910;8.352;2023-12-20T15:39:10;31.70;;;9.33;;
21128;SDS011;10722;51.910;8.352;2023-12-20T15:41:55;27.10;;;9.33;;
21128;SDS011;10722;51.910;8.352;2023-12-20T15:44:40;32.63;;;9.20;;
21128;SDS011;10722;51.910;8.352;2023-12-20T15:47:25;30.53;;;9.00;;
21128;SDS011;10722;51.910;8.352;2023-12-20T15:50:11;22.60;;;8.43;;
21128;SDS011;10722;51.910;8.352;2023-12-20T15:52:56;26.70;;;9.07;;
21128;SDS011;10722;51.910;8.352;2023-12-20T15:55:41;29.73;;;9.90;;
21128;SDS011;10722;51.910;8.352;2023-12-20T15:58:27;26.87;;;9.50;;
21128;SDS011;10722;51.910;8.352;2023-12-20T16:01:12;29.60;;;10.40;;
21128;SDS011;10722;51.910;8.352;2023-12-20T16:03:58;28.20;;;9.67;;
21128;SDS011;10722;51.910;8.352;2023-12-20T16:06:44;27.97;;;9.30;;
21128;SDS011;10722;51.910;8.352;2023-12-20T16:09:29;29.07;;;10.00;;
21128;SDS011;10722;51.910;8.352;2023-12-20T16:12:15;32.33;;;9.80;;
21128;SDS011;10722;51.910;8.352;2023-12-20T16:15:00;28.17;;;9.70;;
21128;SDS011;10722;51.910;8.352;2023-12-20T16:17:45;29.43;;;8.73;;
21128;SDS011;10722;51.910;8.352;2023-12-20T16:20:30;28.60;;;9.53;;
21128;SDS011;10722;51.910;8.352;2023-12-20T16:23:16;25.37;;;9.67;;